Aviation Digital Data Service (ADDS)

Output produced by TAFs form (0052 UTC 21 November 2017)
found at http://www.aviationweather.gov/adds/tafs/
 
METAR text: RJTK 202110Z 34022G35KT 9999 NSC 08/M04 Q1020 RMK A3014
Conditions at: RJTK (KISARAZU (JGSDF), JP) observed 2110 UTC 20 November 2017
Temperature: 8.0°C (46°F)
Dewpoint: -4.0°C (25°F) [RH = 42%]
Pressure (altimeter): 30.12 inches Hg (1020.0 mb)
Winds: from the NNW (340 degrees) at 25 MPH (22 knots; 11.4 m/s)
gusting to 40 MPH (35 knots; 18.2 m/s)
Visibility: 6 or more miles (10+ km)
Ceiling: at least 12,000 feet AGL
Clouds: sky clear below 12,000 feet AGL
Weather: no significant weather observed at this time